Terminal Aerodrome Forecast
Issued by NWS Grand Forks, ND

Home | Current Version | Previous Version | Graphics & Text | Print | Product List | Glossary On
Versions: 1 2 3 4 5 6 7 8 9 10 11 12 13
000
FTUS43 KFGF 171700
TAFGFK
TAF
KGFK 171725Z 1718/1818 03007KT P6SM SKC
     FM180100 08007KT P6SM SCT100
     FM181400 13014KT P6SM SCT060=

USA.gov is the U.S. government's official web portal to all federal, state and local government web resources and services.